sensor_id;sensor_type;location;lat;lon;timestamp;P1;durP1;ratioP1;P2;durP2;ratioP2
54502;SDS011;40411;50.090;21.954;2022-09-16T00:00:01;20.25;;;11.07;;
54502;SDS011;40411;50.090;21.954;2022-09-16T00:02:27;24.08;;;11.27;;
54502;SDS011;40411;50.090;21.954;2022-09-16T00:04:53;19.02;;;11.70;;
54502;SDS011;40411;50.090;21.954;2022-09-16T00:07:19;19.00;;;11.20;;
54502;SDS011;40411;50.090;21.954;2022-09-16T00:09:45;20.42;;;12.32;;
54502;SDS011;40411;50.090;21.954;2022-09-16T00:12:11;21.90;;;11.15;;
54502;SDS011;40411;50.090;21.954;2022-09-16T00:14:36;22.30;;;11.05;;
54502;SDS011;40411;50.090;21.954;2022-09-16T00:17:02;19.50;;;10.23;;
54502;SDS011;40411;50.090;21.954;2022-09-16T00:19:28;19.33;;;10.50;;
54502;SDS011;40411;50.090;21.954;2022-09-16T00:21:54;19.17;;;11.18;;
54502;SDS011;40411;50.090;21.954;2022-09-16T00:24:20;25.50;;;11.98;;
54502;SDS011;40411;50.090;21.954;2022-09-16T00:26:46;23.33;;;12.10;;
54502;SDS011;40411;50.090;21.954;2022-09-16T00:29:11;22.92;;;12.55;;
54502;SDS011;40411;50.090;21.954;2022-09-16T00:31:37;19.00;;;11.43;;
54502;SDS011;40411;50.090;21.954;2022-09-16T00:34:03;21.13;;;13.13;;
54502;SDS011;40411;50.090;21.954;2022-09-16T00:36:29;20.77;;;12.32;;
54502;SDS011;40411;50.090;21.954;2022-09-16T00:38:55;26.20;;;12.93;;
54502;SDS011;40411;50.090;21.954;2022-09-16T00:41:25;27.35;;;13.23;;
54502;SDS011;40411;50.090;21.954;2022-09-16T00:43:58;22.30;;;13.13;;
54502;SDS011;40411;50.090;21.954;2022-09-16T00:49:02;26.17;;;14.18;;
54502;SDS011;40411;50.090;21.954;2022-09-16T00:51:35;35.00;;;14.88;;
54502;SDS011;40411;50.090;21.954;2022-09-16T00:54:02;31.95;;;15.45;;
54502;SDS011;40411;50.090;21.954;2022-09-16T00:56:33;36.92;;;17.98;;
54502;SDS011;40411;50.090;21.954;2022-09-16T00:59:05;31.65;;;16.58;;
54502;SDS011;40411;50.090;21.954;2022-09-16T01:01:33;31.77;;;16.30;;
54502;SDS011;40411;50.090;21.954;2022-09-16T01:04:03;49.75;;;17.98;;
54502;SDS011;40411;50.090;21.954;2022-09-16T01:06:38;34.13;;;17.65;;
54502;SDS011;40411;50.090;21.954;2022-09-16T01:09:04;40.70;;;17.73;;
54502;SDS011;40411;50.090;21.954;2022-09-16T01:11:31;40.85;;;17.50;;
54502;SDS011;40411;50.090;21.954;2022-09-16T01:13:57;39.97;;;19.63;;
54502;SDS011;40411;50.090;21.954;2022-09-16T01:16:46;38.50;;;19.48;;
54502;SDS011;40411;50.090;21.954;2022-09-16T01:28:26;40.75;;;18.75;;
54502;SDS011;40411;50.090;21.954;2022-09-16T01:44:22;46.22;;;20.30;;
54502;SDS011;40411;50.090;21.954;2022-09-16T01:49:34;37.53;;;19.88;;
54502;SDS011;40411;50.090;21.954;2022-09-16T01:54:57;48.17;;;21.90;;
54502;SDS011;40411;50.090;21.954;2022-09-16T02:00:06;45.15;;;22.25;;
54502;SDS011;40411;50.090;21.954;2022-09-16T02:02:55;47.75;;;22.67;;
54502;SDS011;40411;50.090;21.954;2022-09-16T02:05:28;45.40;;;21.30;;
54502;SDS011;40411;50.090;21.954;2022-09-16T02:08:01;40.17;;;21.65;;
54502;SDS011;40411;50.090;21.954;2022-09-16T02:10:32;38.47;;;21.23;;
54502;SDS011;40411;50.090;21.954;2022-09-16T02:13:07;50.15;;;21.80;;
54502;SDS011;40411;50.090;21.954;2022-09-16T02:15:51;42.50;;;23.40;;
54502;SDS011;40411;50.090;21.954;2022-09-16T02:18:24;46.80;;;22.80;;
54502;SDS011;40411;50.090;21.954;2022-09-16T02:20:54;44.05;;;22.45;;
54502;SDS011;40411;50.090;21.954;2022-09-16T02:23:24;44.67;;;22.33;;
54502;SDS011;40411;50.090;21.954;2022-09-16T02:25:53;48.47;;;22.35;;
54502;SDS011;40411;50.090;21.954;2022-09-16T02:28:24;46.72;;;21.27;;
54502;SDS011;40411;50.090;21.954;2022-09-16T02:33:23;43.25;;;21.38;;
54502;SDS011;40411;50.090;21.954;2022-09-16T02:35:56;39.65;;;21.35;;
54502;SDS011;40411;50.090;21.954;2022-09-16T02:38:32;44.13;;;21.77;;
54502;SDS011;40411;50.090;21.954;2022-09-16T02:41:03;46.25;;;22.50;;
54502;SDS011;40411;50.090;21.954;2022-09-16T02:43:29;42.35;;;22.10;;
54502;SDS011;40411;50.090;21.954;2022-09-16T02:51:22;48.20;;;21.90;;
54502;SDS011;40411;50.090;21.954;2022-09-16T02:54:20;45.10;;;20.38;;
54502;SDS011;40411;50.090;21.954;2022-09-16T02:56:48;42.33;;;22.00;;
54502;SDS011;40411;50.090;21.954;2022-09-16T02:59:14;42.03;;;22.98;;
54502;SDS011;40411;50.090;21.954;2022-09-16T03:01:43;42.88;;;22.35;;
54502;SDS011;40411;50.090;21.954;2022-09-16T03:04:12;44.15;;;22.45;;
54502;SDS011;40411;50.090;21.954;2022-09-16T03:06:40;46.28;;;22.23;;
54502;SDS011;40411;50.090;21.954;2022-09-16T03:09:10;42.65;;;21.20;;
54502;SDS011;40411;50.090;21.954;2022-09-16T03:31:09;48.58;;;22.80;;
54502;SDS011;40411;50.090;21.954;2022-09-16T03:34:16;42.35;;;22.15;;
54502;SDS011;40411;50.090;21.954;2022-09-16T03:37:02;44.53;;;21.90;;
54502;SDS011;40411;50.090;21.954;2022-09-16T03:39:31;48.03;;;23.20;;
54502;SDS011;40411;50.090;21.954;2022-09-16T03:41:59;46.28;;;23.60;;
54502;SDS011;40411;50.090;21.954;2022-09-16T03:44:33;45.05;;;23.48;;
54502;SDS011;40411;50.090;21.954;2022-09-16T03:47:04;49.63;;;23.90;;
54502;SDS011;40411;50.090;21.954;2022-09-16T03:49:33;42.92;;;22.85;;
54502;SDS011;40411;50.090;21.954;2022-09-16T03:52:00;51.05;;;23.17;;
54502;SDS011;40411;50.090;21.954;2022-09-16T03:54:26;55.63;;;23.15;;
54502;SDS011;40411;50.090;21.954;2022-09-16T03:56:52;50.10;;;23.48;;
54502;SDS011;40411;50.090;21.954;2022-09-16T03:59:18;50.22;;;23.63;;
54502;SDS011;40411;50.090;21.954;2022-09-16T04:01:44;50.00;;;24.40;;
54502;SDS011;40411;50.090;21.954;2022-09-16T04:04:10;47.90;;;23.83;;
54502;SDS011;40411;50.090;21.954;2022-09-16T04:06:36;51.42;;;23.95;;
54502;SDS011;40411;50.090;21.954;2022-09-16T04:09:03;41.58;;;22.70;;
54502;SDS011;40411;50.090;21.954;2022-09-16T04:11:31;47.55;;;22.02;;
54502;SDS011;40411;50.090;21.954;2022-09-16T04:13:57;42.03;;;22.20;;
54502;SDS011;40411;50.090;21.954;2022-09-16T04:16:23;44.08;;;20.60;;
54502;SDS011;40411;50.090;21.954;2022-09-16T04:18:50;44.60;;;20.90;;
54502;SDS011;40411;50.090;21.954;2022-09-16T04:21:16;45.72;;;19.80;;
54502;SDS011;40411;50.090;21.954;2022-09-16T04:23:42;36.47;;;20.95;;
54502;SDS011;40411;50.090;21.954;2022-09-16T04:26:09;41.35;;;19.63;;
54502;SDS011;40411;50.090;21.954;2022-09-16T04:28:35;43.30;;;20.38;;
54502;SDS011;40411;50.090;21.954;2022-09-16T04:31:03;44.13;;;21.33;;
54502;SDS011;40411;50.090;21.954;2022-09-16T04:33:31;35.95;;;19.30;;
54502;SDS011;40411;50.090;21.954;2022-09-16T04:36:04;40.13;;;20.17;;
54502;SDS011;40411;50.090;21.954;2022-09-16T04:38:35;40.42;;;18.42;;
54502;SDS011;40411;50.090;21.954;2022-09-16T04:41:02;40.10;;;19.15;;
54502;SDS011;40411;50.090;21.954;2022-09-16T04:43:29;33.38;;;19.13;;
54502;SDS011;40411;50.090;21.954;2022-09-16T04:45:55;42.17;;;19.58;;
54502;SDS011;40411;50.090;21.954;2022-09-16T04:48:21;43.90;;;20.73;;
54502;SDS011;40411;50.090;21.954;2022-09-16T04:50:47;46.80;;;21.42;;
54502;SDS011;40411;50.090;21.954;2022-09-16T04:53:14;41.08;;;20.40;;
54502;SDS011;40411;50.090;21.954;2022-09-16T04:55:40;39.60;;;19.65;;
54502;SDS011;40411;50.090;21.954;2022-09-16T04:58:06;41.28;;;20.20;;
54502;SDS011;40411;50.090;21.954;2022-09-16T05:00:32;41.63;;;18.73;;
54502;SDS011;40411;50.090;21.954;2022-09-16T05:02:58;41.40;;;19.40;;
54502;SDS011;40411;50.090;21.954;2022-09-16T05:05:23;35.95;;;18.27;;
54502;SDS011;40411;50.090;21.954;2022-09-16T05:07:49;29.30;;;17.52;;
54502;SDS011;40411;50.090;21.954;2022-09-16T05:10:15;32.65;;;18.00;;
54502;SDS011;40411;50.090;21.954;2022-09-16T05:12:41;38.78;;;19.20;;
54502;SDS011;40411;50.090;21.954;2022-09-16T05:15:07;33.13;;;17.58;;
54502;SDS011;40411;50.090;21.954;2022-09-16T05:17:34;30.02;;;17.25;;
54502;SDS011;40411;50.090;21.954;2022-09-16T05:20:00;32.28;;;17.02;;
54502;SDS011;40411;50.090;21.954;2022-09-16T05:22:26;35.67;;;17.33;;
54502;SDS011;40411;50.090;21.954;2022-09-16T05:24:55;30.17;;;16.10;;
54502;SDS011;40411;50.090;21.954;2022-09-16T05:27:21;35.72;;;16.33;;
54502;SDS011;40411;50.090;21.954;2022-09-16T05:29:47;25.52;;;14.98;;
54502;SDS011;40411;50.090;21.954;2022-09-16T05:32:13;27.02;;;14.73;;
54502;SDS011;40411;50.090;21.954;2022-09-16T05:34:39;29.20;;;14.90;;
54502;SDS011;40411;50.090;21.954;2022-09-16T05:37:05;27.50;;;14.23;;
54502;SDS011;40411;50.090;21.954;2022-09-16T05:39:31;27.38;;;12.82;;
54502;SDS011;40411;50.090;21.954;2022-09-16T05:41:57;23.45;;;12.65;;
54502;SDS011;40411;50.090;21.954;2022-09-16T05:44:25;23.00;;;12.35;;
54502;SDS011;40411;50.090;21.954;2022-09-16T05:46:52;16.15;;;9.63;;
54502;SDS011;40411;50.090;21.954;2022-09-16T05:49:18;21.55;;;12.02;;
54502;SDS011;40411;50.090;21.954;2022-09-16T05:51:45;19.67;;;10.70;;
54502;SDS011;40411;50.090;21.954;2022-09-16T05:54:12;17.65;;;9.50;;
54502;SDS011;40411;50.090;21.954;2022-09-16T05:56:48;19.48;;;8.57;;
54502;SDS011;40411;50.090;21.954;2022-09-16T05:59:16;21.38;;;8.73;;
54502;SDS011;40411;50.090;21.954;2022-09-16T06:01:42;16.02;;;7.88;;
54502;SDS011;40411;50.090;21.954;2022-09-16T06:04:10;16.15;;;8.05;;
54502;SDS011;40411;50.090;21.954;2022-09-16T06:06:38;17.42;;;6.82;;
54502;SDS011;40411;50.090;21.954;2022-09-16T06:09:09;13.07;;;6.47;;
54502;SDS011;40411;50.090;21.954;2022-09-16T06:11:41;17.30;;;6.65;;
54502;SDS011;40411;50.090;21.954;2022-09-16T06:14:08;11.65;;;6.55;;
54502;SDS011;40411;50.090;21.954;2022-09-16T06:16:35;13.45;;;6.45;;
54502;SDS011;40411;50.090;21.954;2022-09-16T06:19:04;10.18;;;6.15;;
54502;SDS011;40411;50.090;21.954;2022-09-16T06:21:35;10.32;;;5.57;;
54502;SDS011;40411;50.090;21.954;2022-09-16T06:24:02;11.50;;;6.10;;
54502;SDS011;40411;50.090;21.954;2022-09-16T06:26:33;13.02;;;6.68;;
54502;SDS011;40411;50.090;21.954;2022-09-16T06:29:00;10.93;;;5.80;;
54502;SDS011;40411;50.090;21.954;2022-09-16T06:31:27;10.70;;;5.10;;
54502;SDS011;40411;50.090;21.954;2022-09-16T06:33:53;12.88;;;5.47;;
54502;SDS011;40411;50.090;21.954;2022-09-16T06:36:21;10.18;;;4.97;;
54502;SDS011;40411;50.090;21.954;2022-09-16T06:38:49;11.73;;;5.53;;
54502;SDS011;40411;50.090;21.954;2022-09-16T06:41:16;10.88;;;5.28;;
54502;SDS011;40411;50.090;21.954;2022-09-16T06:43:43;11.85;;;5.75;;
54502;SDS011;40411;50.090;21.954;2022-09-16T06:46:31;27.63;;;6.55;;
54502;SDS011;40411;50.090;21.954;2022-09-16T06:48:57;10.18;;;4.97;;
54502;SDS011;40411;50.090;21.954;2022-09-16T06:51:24;10.90;;;5.15;;
54502;SDS011;40411;50.090;21.954;2022-09-16T06:53:53;10.02;;;5.55;;
54502;SDS011;40411;50.090;21.954;2022-09-16T06:56:21;10.57;;;5.57;;
54502;SDS011;40411;50.090;21.954;2022-09-16T06:58:48;13.82;;;4.90;;
54502;SDS011;40411;50.090;21.954;2022-09-16T07:01:17;14.82;;;5.13;;
54502;SDS011;40411;50.090;21.954;2022-09-16T07:03:47;17.75;;;5.45;;
54502;SDS011;40411;50.090;21.954;2022-09-16T07:06:15;14.95;;;4.82;;
54502;SDS011;40411;50.090;21.954;2022-09-16T07:08:42;11.25;;;4.68;;
54502;SDS011;40411;50.090;21.954;2022-09-16T07:11:13;8.07;;;4.28;;
54502;SDS011;40411;50.090;21.954;2022-09-16T07:13:41;8.93;;;4.38;;
54502;SDS011;40411;50.090;21.954;2022-09-16T07:16:09;12.23;;;3.90;;
54502;SDS011;40411;50.090;21.954;2022-09-16T07:18:36;9.90;;;4.43;;
54502;SDS011;40411;50.090;21.954;2022-09-16T07:21:04;9.10;;;3.83;;
54502;SDS011;40411;50.090;21.954;2022-09-16T07:23:34;7.03;;;3.65;;
54502;SDS011;40411;50.090;21.954;2022-09-16T07:28:27;10.07;;;4.28;;
54502;SDS011;40411;50.090;21.954;2022-09-16T07:30:53;12.40;;;3.83;;
54502;SDS011;40411;50.090;21.954;2022-09-16T07:33:19;14.75;;;3.53;;
54502;SDS011;40411;50.090;21.954;2022-09-16T07:35:46;13.43;;;4.00;;
54502;SDS011;40411;50.090;21.954;2022-09-16T07:38:12;10.60;;;3.47;;
54502;SDS011;40411;50.090;21.954;2022-09-16T07:40:37;8.57;;;3.60;;
54502;SDS011;40411;50.090;21.954;2022-09-16T07:43:05;8.93;;;3.10;;
54502;SDS011;40411;50.090;21.954;2022-09-16T07:45:31;7.20;;;2.92;;
54502;SDS011;40411;50.090;21.954;2022-09-16T07:47:57;8.38;;;2.60;;
54502;SDS011;40411;50.090;21.954;2022-09-16T07:50:23;8.48;;;2.97;;
54502;SDS011;40411;50.090;21.954;2022-09-16T07:52:58;12.93;;;2.90;;
54502;SDS011;40411;50.090;21.954;2022-09-16T07:55:24;8.68;;;3.00;;
54502;SDS011;40411;50.090;21.954;2022-09-16T07:57:51;8.60;;;3.17;;
54502;SDS011;40411;50.090;21.954;2022-09-16T08:00:17;7.90;;;2.90;;
54502;SDS011;40411;50.090;21.954;2022-09-16T08:02:44;9.75;;;2.85;;
54502;SDS011;40411;50.090;21.954;2022-09-16T08:05:10;6.47;;;3.17;;
54502;SDS011;40411;50.090;21.954;2022-09-16T08:07:37;10.05;;;3.00;;
54502;SDS011;40411;50.090;21.954;2022-09-16T08:10:04;5.78;;;2.83;;
54502;SDS011;40411;50.090;21.954;2022-09-16T08:12:30;10.10;;;2.75;;
54502;SDS011;40411;50.090;21.954;2022-09-16T08:14:59;9.05;;;2.95;;
54502;SDS011;40411;50.090;21.954;2022-09-16T08:17:25;6.50;;;2.65;;
54502;SDS011;40411;50.090;21.954;2022-09-16T08:19:51;6.25;;;2.70;;
54502;SDS011;40411;50.090;21.954;2022-09-16T08:22:17;9.20;;;3.88;;
54502;SDS011;40411;50.090;21.954;2022-09-16T08:24:43;6.45;;;2.60;;
54502;SDS011;40411;50.090;21.954;2022-09-16T08:27:09;8.80;;;3.05;;
54502;SDS011;40411;50.090;21.954;2022-09-16T08:29:35;6.13;;;2.10;;
54502;SDS011;40411;50.090;21.954;2022-09-16T08:32:01;8.23;;;2.20;;
54502;SDS011;40411;50.090;21.954;2022-09-16T08:34:27;10.20;;;2.20;;
54502;SDS011;40411;50.090;21.954;2022-09-16T08:36:53;7.00;;;2.35;;
54502;SDS011;40411;50.090;21.954;2022-09-16T08:39:19;5.68;;;2.38;;
54502;SDS011;40411;50.090;21.954;2022-09-16T08:47:11;6.50;;;2.13;;
54502;SDS011;40411;50.090;21.954;2022-09-16T08:49:42;6.10;;;2.05;;
54502;SDS011;40411;50.090;21.954;2022-09-16T08:52:29;6.95;;;1.98;;
54502;SDS011;40411;50.090;21.954;2022-09-16T08:55:05;10.57;;;1.85;;
54502;SDS011;40411;50.090;21.954;2022-09-16T08:57:38;6.90;;;1.98;;
54502;SDS011;40411;50.090;21.954;2022-09-16T09:00:12;12.05;;;2.00;;
54502;SDS011;40411;50.090;21.954;2022-09-16T09:10:29;5.00;;;1.48;;
54502;SDS011;40411;50.090;21.954;2022-09-16T09:15:40;5.90;;;1.50;;
54502;SDS011;40411;50.090;21.954;2022-09-16T09:24:04;6.00;;;1.55;;
54502;SDS011;40411;50.090;21.954;2022-09-16T09:26:53;6.72;;;1.85;;
54502;SDS011;40411;50.090;21.954;2022-09-16T09:37:57;5.80;;;1.30;;
54502;SDS011;40411;50.090;21.954;2022-09-16T09:40:50;3.75;;;1.55;;
54502;SDS011;40411;50.090;21.954;2022-09-16T09:43:21;3.88;;;1.40;;
54502;SDS011;40411;50.090;21.954;2022-09-16T09:49:25;7.28;;;1.80;;
54502;SDS011;40411;50.090;21.954;2022-09-16T09:52:06;3.97;;;1.35;;
54502;SDS011;40411;50.090;21.954;2022-09-16T09:54:37;3.00;;;1.27;;
54502;SDS011;40411;50.090;21.954;2022-09-16T10:00:10;6.95;;;1.80;;
54502;SDS011;40411;50.090;21.954;2022-09-16T10:02:41;4.22;;;1.80;;
54502;SDS011;40411;50.090;21.954;2022-09-16T10:05:26;6.75;;;1.80;;
54502;SDS011;40411;50.090;21.954;2022-09-16T10:07:57;3.50;;;1.55;;
54502;SDS011;40411;50.090;21.954;2022-09-16T10:10:50;3.58;;;1.60;;
54502;SDS011;40411;50.090;21.954;2022-09-16T10:13:18;7.72;;;2.15;;
54502;SDS011;40411;50.090;21.954;2022-09-16T10:15:46;4.43;;;1.90;;
54502;SDS011;40411;50.090;21.954;2022-09-16T10:18:24;9.07;;;2.10;;
54502;SDS011;40411;50.090;21.954;2022-09-16T10:21:08;5.30;;;2.40;;
54502;SDS011;40411;50.090;21.954;2022-09-16T10:23:37;6.07;;;2.08;;
54502;SDS011;40411;50.090;21.954;2022-09-16T10:26:20;6.25;;;1.95;;
54502;SDS011;40411;50.090;21.954;2022-09-16T10:28:54;7.72;;;2.33;;
54502;SDS011;40411;50.090;21.954;2022-09-16T10:31:30;4.68;;;1.80;;
54502;SDS011;40411;50.090;21.954;2022-09-16T10:34:02;8.93;;;2.20;;
54502;SDS011;40411;50.090;21.954;2022-09-16T10:36:33;8.23;;;2.13;;
54502;SDS011;40411;50.090;21.954;2022-09-16T10:39:00;10.85;;;2.17;;
54502;SDS011;40411;50.090;21.954;2022-09-16T10:41:29;7.30;;;2.60;;
54502;SDS011;40411;50.090;21.954;2022-09-16T10:44:00;6.00;;;2.55;;
54502;SDS011;40411;50.090;21.954;2022-09-16T10:46:29;10.07;;;2.63;;
54502;SDS011;40411;50.090;21.954;2022-09-16T10:48:58;9.77;;;2.95;;
54502;SDS011;40411;50.090;21.954;2022-09-16T10:51:33;7.18;;;2.30;;
54502;SDS011;40411;50.090;21.954;2022-09-16T10:54:02;4.78;;;2.03;;
54502;SDS011;40411;50.090;21.954;2022-09-16T10:56:49;5.18;;;2.05;;
54502;SDS011;40411;50.090;21.954;2022-09-16T10:59:16;8.02;;;2.17;;
54502;SDS011;40411;50.090;21.954;2022-09-16T11:01:45;6.00;;;2.13;;
54502;SDS011;40411;50.090;21.954;2022-09-16T11:09:54;7.15;;;2.42;;
54502;SDS011;40411;50.090;21.954;2022-09-16T11:15:16;7.40;;;2.10;;
54502;SDS011;40411;50.090;21.954;2022-09-16T11:20:41;7.35;;;2.53;;
54502;SDS011;40411;50.090;21.954;2022-09-16T11:23:32;5.03;;;2.10;;
54502;SDS011;40411;50.090;21.954;2022-09-16T11:26:13;5.22;;;1.80;;
54502;SDS011;40411;50.090;21.954;2022-09-16T11:37:17;3.80;;;1.80;;
54502;SDS011;40411;50.090;21.954;2022-09-16T11:40:11;4.65;;;1.80;;
54502;SDS011;40411;50.090;21.954;2022-09-16T11:42:52;6.75;;;2.10;;
54502;SDS011;40411;50.090;21.954;2022-09-16T11:50:59;6.00;;;2.15;;
54502;SDS011;40411;50.090;21.954;2022-09-16T11:53:47;6.32;;;1.80;;
54502;SDS011;40411;50.090;21.954;2022-09-16T11:56:35;4.38;;;1.95;;
54502;SDS011;40411;50.090;21.954;2022-09-16T11:59:25;4.88;;;1.75;;
54502;SDS011;40411;50.090;21.954;2022-09-16T12:02:20;4.43;;;1.95;;
54502;SDS011;40411;50.090;21.954;2022-09-16T12:05:18;8.10;;;1.85;;
54502;SDS011;40411;50.090;21.954;2022-09-16T12:10:37;6.00;;;1.67;;
54502;SDS011;40411;50.090;21.954;2022-09-16T12:13:13;4.35;;;1.70;;
54502;SDS011;40411;50.090;21.954;2022-09-16T12:15:53;4.40;;;1.88;;
54502;SDS011;40411;50.090;21.954;2022-09-16T12:18:40;7.05;;;1.85;;
54502;SDS011;40411;50.090;21.954;2022-09-16T12:21:31;5.18;;;1.67;;
54502;SDS011;40411;50.090;21.954;2022-09-16T12:24:05;7.13;;;2.33;;
54502;SDS011;40411;50.090;21.954;2022-09-16T12:26:42;4.63;;;2.10;;
54502;SDS011;40411;50.090;21.954;2022-09-16T12:29:28;7.78;;;2.25;;
54502;SDS011;40411;50.090;21.954;2022-09-16T12:32:11;6.47;;;2.38;;
54502;SDS011;40411;50.090;21.954;2022-09-16T12:34:48;4.32;;;1.90;;
54502;SDS011;40411;50.090;21.954;2022-09-16T12:39:49;4.32;;;2.22;;
54502;SDS011;40411;50.090;21.954;2022-09-16T12:45:25;7.55;;;2.40;;
54502;SDS011;40411;50.090;21.954;2022-09-16T12:53:37;7.85;;;2.70;;
54502;SDS011;40411;50.090;21.954;2022-09-16T13:02:17;9.13;;;3.88;;
54502;SDS011;40411;50.090;21.954;2022-09-16T13:04:47;7.10;;;3.03;;
54502;SDS011;40411;50.090;21.954;2022-09-16T13:07:21;6.05;;;2.92;;
54502;SDS011;40411;50.090;21.954;2022-09-16T13:09:48;13.23;;;3.45;;
54502;SDS011;40411;50.090;21.954;2022-09-16T13:12:25;9.70;;;3.28;;
54502;SDS011;40411;50.090;21.954;2022-09-16T13:14:53;9.82;;;3.15;;
54502;SDS011;40411;50.090;21.954;2022-09-16T13:17:31;10.30;;;3.10;;
54502;SDS011;40411;50.090;21.954;2022-09-16T13:27:36;10.63;;;3.38;;
54502;SDS011;40411;50.090;21.954;2022-09-16T13:30:33;7.25;;;3.10;;
54502;SDS011;40411;50.090;21.954;2022-09-16T13:33:02;6.80;;;3.08;;
54502;SDS011;40411;50.090;21.954;2022-09-16T13:35:47;6.10;;;3.45;;
54502;SDS011;40411;50.090;21.954;2022-09-16T13:40:59;8.43;;;3.63;;
54502;SDS011;40411;50.090;21.954;2022-09-16T13:43:27;9.88;;;3.15;;
54502;SDS011;40411;50.090;21.954;2022-09-16T13:48:36;6.20;;;3.10;;
54502;SDS011;40411;50.090;21.954;2022-09-16T13:51:08;8.55;;;3.45;;
54502;SDS011;40411;50.090;21.954;2022-09-16T13:53:47;6.97;;;3.10;;
54502;SDS011;40411;50.090;21.954;2022-09-16T13:59:02;8.15;;;2.88;;
54502;SDS011;40411;50.090;21.954;2022-09-16T14:10:19;11.52;;;3.42;;
54502;SDS011;40411;50.090;21.954;2022-09-16T14:13:08;9.07;;;3.25;;
54502;SDS011;40411;50.090;21.954;2022-09-16T14:15:41;9.85;;;2.90;;
54502;SDS011;40411;50.090;21.954;2022-09-16T14:18:11;7.28;;;3.15;;
54502;SDS011;40411;50.090;21.954;2022-09-16T14:20:49;7.55;;;3.08;;
54502;SDS011;40411;50.090;21.954;2022-09-16T14:23:28;6.28;;;3.28;;
54502;SDS011;40411;50.090;21.954;2022-09-16T14:25:55;8.30;;;3.30;;
54502;SDS011;40411;50.090;21.954;2022-09-16T14:28:27;7.82;;;3.70;;
54502;SDS011;40411;50.090;21.954;2022-09-16T14:30:55;7.90;;;3.20;;
54502;SDS011;40411;50.090;21.954;2022-09-16T14:33:27;6.97;;;3.00;;
54502;SDS011;40411;50.090;21.954;2022-09-16T14:35:56;6.10;;;3.03;;
54502;SDS011;40411;50.090;21.954;2022-09-16T14:38:32;6.15;;;3.03;;
54502;SDS011;40411;50.090;21.954;2022-09-16T14:41:06;8.18;;;3.40;;
54502;SDS011;40411;50.090;21.954;2022-09-16T14:43:33;7.13;;;3.25;;
54502;SDS011;40411;50.090;21.954;2022-09-16T14:46:02;5.03;;;2.58;;
54502;SDS011;40411;50.090;21.954;2022-09-16T14:48:33;5.47;;;2.67;;
54502;SDS011;40411;50.090;21.954;2022-09-16T14:51:02;8.52;;;3.03;;
54502;SDS011;40411;50.090;21.954;2022-09-16T14:53:51;6.30;;;2.78;;
54502;SDS011;40411;50.090;21.954;2022-09-16T14:56:21;7.10;;;3.20;;
54502;SDS011;40411;50.090;21.954;2022-09-16T14:58:47;6.05;;;3.00;;
54502;SDS011;40411;50.090;21.954;2022-09-16T15:01:17;6.22;;;2.85;;
54502;SDS011;40411;50.090;21.954;2022-09-16T15:03:49;7.93;;;3.08;;
54502;SDS011;40411;50.090;21.954;2022-09-16T15:06:20;6.43;;;2.88;;
54502;SDS011;40411;50.090;21.954;2022-09-16T15:08:59;7.13;;;2.78;;
54502;SDS011;40411;50.090;21.954;2022-09-16T15:11:28;7.30;;;3.05;;
54502;SDS011;40411;50.090;21.954;2022-09-16T15:14:04;8.27;;;3.88;;
54502;SDS011;40411;50.090;21.954;2022-09-16T15:16:31;8.80;;;3.30;;
54502;SDS011;40411;50.090;21.954;2022-09-16T15:19:04;8.32;;;3.50;;
54502;SDS011;40411;50.090;21.954;2022-09-16T15:21:34;7.78;;;3.33;;
54502;SDS011;40411;50.090;21.954;2022-09-16T15:24:04;7.25;;;3.40;;
54502;SDS011;40411;50.090;21.954;2022-09-16T15:26:41;11.98;;;3.42;;
54502;SDS011;40411;50.090;21.954;2022-09-16T15:29:24;9.45;;;3.45;;
54502;SDS011;40411;50.090;21.954;2022-09-16T15:32:04;11.82;;;3.78;;
54502;SDS011;40411;50.090;21.954;2022-09-16T15:34:42;13.95;;;3.75;;
54502;SDS011;40411;50.090;21.954;2022-09-16T15:39:55;11.52;;;4.07;;
54502;SDS011;40411;50.090;21.954;2022-09-16T15:42:43;6.55;;;3.75;;
54502;SDS011;40411;50.090;21.954;2022-09-16T15:45:13;5.82;;;3.42;;
54502;SDS011;40411;50.090;21.954;2022-09-16T15:47:49;8.68;;;3.40;;
54502;SDS011;40411;50.090;21.954;2022-09-16T15:50:19;9.13;;;3.78;;
54502;SDS011;40411;50.090;21.954;2022-09-16T15:58:34;9.20;;;5.43;;
54502;SDS011;40411;50.090;21.954;2022-09-16T16:06:18;12.60;;;6.18;;
54502;SDS011;40411;50.090;21.954;2022-09-16T16:08:48;12.98;;;5.07;;
54502;SDS011;40411;50.090;21.954;2022-09-16T16:11:19;10.98;;;5.75;;
54502;SDS011;40411;50.090;21.954;2022-09-16T16:13:48;13.48;;;5.43;;
54502;SDS011;40411;50.090;21.954;2022-09-16T16:16:15;10.00;;;5.88;;
54502;SDS011;40411;50.090;21.954;2022-09-16T16:18:43;12.70;;;5.60;;
54502;SDS011;40411;50.090;21.954;2022-09-16T16:21:11;11.13;;;5.82;;
54502;SDS011;40411;50.090;21.954;2022-09-16T16:23:40;9.73;;;5.40;;
54502;SDS011;40411;50.090;21.954;2022-09-16T16:26:08;11.73;;;5.60;;
54502;SDS011;40411;50.090;21.954;2022-09-16T16:28:35;12.30;;;5.22;;
54502;SDS011;40411;50.090;21.954;2022-09-16T16:31:08;7.90;;;5.35;;
54502;SDS011;40411;50.090;21.954;2022-09-16T16:33:37;11.45;;;5.93;;
54502;SDS011;40411;50.090;21.954;2022-09-16T16:36:03;12.18;;;6.20;;
54502;SDS011;40411;50.090;21.954;2022-09-16T16:38:30;11.85;;;5.78;;
54502;SDS011;40411;50.090;21.954;2022-09-16T16:40:56;9.45;;;6.03;;
54502;SDS011;40411;50.090;21.954;2022-09-16T16:43:22;11.30;;;5.90;;
54502;SDS011;40411;50.090;21.954;2022-09-16T16:45:55;13.45;;;8.50;;
54502;SDS011;40411;50.090;21.954;2022-09-16T16:48:22;13.32;;;7.47;;
54502;SDS011;40411;50.090;21.954;2022-09-16T16:50:59;21.58;;;9.60;;
54502;SDS011;40411;50.090;21.954;2022-09-16T16:53:28;27.02;;;12.35;;
54502;SDS011;40411;50.090;21.954;2022-09-16T16:56:01;21.33;;;10.80;;
54502;SDS011;40411;50.090;21.954;2022-09-16T16:58:31;15.40;;;10.20;;
54502;SDS011;40411;50.090;21.954;2022-09-16T17:01:34;19.98;;;10.57;;
54502;SDS011;40411;50.090;21.954;2022-09-16T17:03:56;23.13;;;14.07;;
54502;SDS011;40411;50.090;21.954;2022-09-16T17:06:22;23.15;;;13.88;;
54502;SDS011;40411;50.090;21.954;2022-09-16T17:08:48;29.08;;;21.23;;
54502;SDS011;40411;50.090;21.954;2022-09-16T17:11:15;34.85;;;25.77;;
54502;SDS011;40411;50.090;21.954;2022-09-16T17:13:45;37.70;;;25.10;;
54502;SDS011;40411;50.090;21.954;2022-09-16T17:16:14;24.08;;;15.55;;
54502;SDS011;40411;50.090;21.954;2022-09-16T17:18:42;26.88;;;16.88;;
54502;SDS011;40411;50.090;21.954;2022-09-16T17:21:10;23.10;;;14.88;;
54502;SDS011;40411;50.090;21.954;2022-09-16T17:23:36;35.28;;;14.80;;
54502;SDS011;40411;50.090;21.954;2022-09-16T17:26:03;26.58;;;15.15;;
54502;SDS011;40411;50.090;21.954;2022-09-16T17:28:30;25.48;;;14.10;;
54502;SDS011;40411;50.090;21.954;2022-09-16T17:30:56;27.67;;;14.57;;
54502;SDS011;40411;50.090;21.954;2022-09-16T17:33:22;25.95;;;17.63;;
54502;SDS011;40411;50.090;21.954;2022-09-16T17:35:58;28.02;;;17.42;;
54502;SDS011;40411;50.090;21.954;2022-09-16T17:38:26;23.45;;;14.93;;
54502;SDS011;40411;50.090;21.954;2022-09-16T17:40:58;25.58;;;14.45;;
54502;SDS011;40411;50.090;21.954;2022-09-16T17:43:30;23.45;;;14.50;;
54502;SDS011;40411;50.090;21.954;2022-09-16T17:45:57;22.25;;;12.85;;